createdAt,value
2024-04-18T00:00:57.588Z,96595.88
2024-04-18T00:03:25.752Z,96588.56
2024-04-18T00:05:55.619Z,96601.97
2024-04-18T00:08:24.884Z,96597.22
2024-04-18T00:10:54.399Z,96600.44
2024-04-18T00:13:22.083Z,96601.75
2024-04-18T00:15:50.799Z,96604.88
2024-04-18T00:18:19.701Z,96603.97
2024-04-18T00:20:51.878Z,96603.00
2024-04-18T00:23:23.127Z,96613.81
2024-04-18T00:25:52.233Z,96601.16
2024-04-18T00:28:20.002Z,96602.50
2024-04-18T00:30:54.392Z,96602.91
2024-04-18T00:33:23.239Z,96610.53
2024-04-18T00:35:51.455Z,96608.00
2024-04-18T00:38:19.808Z,96602.19
2024-04-18T00:40:47.774Z,96606.94
2024-04-18T00:43:19.944Z,96598.75
2024-04-18T00:45:49.511Z,96601.34
2024-04-18T00:48:18.214Z,96603.78
2024-04-18T00:50:47.391Z,96607.03
2024-04-18T00:53:16.619Z,96602.91
2024-04-18T00:55:46.647Z,96595.25
2024-04-18T00:58:15.814Z,96602.09
2024-04-18T01:00:44.853Z,96593.81
2024-04-18T01:03:12.418Z,96589.09
2024-04-18T01:05:40.691Z,96593.53
2024-04-18T01:08:08.084Z,96584.06
2024-04-18T01:10:35.965Z,96592.56
2024-04-18T01:13:03.367Z,96595.91
2024-04-18T01:15:31.131Z,96587.78
2024-04-18T01:17:58.762Z,96601.94
2024-04-18T01:20:26.863Z,96593.97
2024-04-18T01:22:56.826Z,96595.31
2024-04-18T01:25:27.470Z,96586.94
2024-04-18T01:27:54.937Z,96590.91
2024-04-18T01:30:22.254Z,96576.94
2024-04-18T01:32:49.785Z,96596.03
2024-04-18T01:35:17.157Z,96587.88
2024-04-18T01:37:44.731Z,96587.19
2024-04-18T01:40:12.808Z,96583.34
2024-04-18T01:42:40.263Z,96586.81
2024-04-18T01:45:08.033Z,96571.97
2024-04-18T01:47:37.646Z,96575.91
2024-04-18T01:50:05.529Z,96585.53
2024-04-18T01:52:33.022Z,96582.88
2024-04-18T01:55:00.491Z,96572.84
2024-04-18T01:57:27.779Z,96575.81
2024-04-18T01:59:56.230Z,96572.06
2024-04-18T02:02:26.257Z,96577.44
2024-04-18T02:04:57.514Z,96573.19
2024-04-18T02:07:26.799Z,96586.97
2024-04-18T02:09:56.123Z,96577.47
2024-04-18T02:12:24.177Z,96587.38
2024-04-18T02:14:52.052Z,96583.44
2024-04-18T02:17:23.157Z,96579.25
2024-04-18T02:19:54.030Z,96575.09
2024-04-18T02:22:23.134Z,96579.31
2024-04-18T02:25:07.314Z,96584.38
2024-04-18T02:27:41.147Z,96588.41
2024-04-18T02:30:11.871Z,96583.38
2024-04-18T02:32:42.219Z,96587.09
2024-04-18T02:35:15.634Z,96586.25
2024-04-18T02:37:50.573Z,96597.81
2024-04-18T02:40:19.438Z,96578.38
2024-04-18T02:42:47.717Z,96576.25
2024-04-18T02:45:17.788Z,96583.31
2024-04-18T02:47:51.770Z,96574.19
2024-04-18T02:50:26.004Z,96576.03
2024-04-18T02:52:58.093Z,96582.25
2024-04-18T02:55:26.006Z,96585.66
2024-04-18T02:57:57.472Z,96582.50
2024-04-18T03:00:26.320Z,96591.38
2024-04-18T03:02:58.406Z,96588.84
2024-04-18T03:05:27.380Z,96593.44
2024-04-18T03:07:59.894Z,96604.38
2024-04-18T03:10:28.616Z,96605.84
2024-04-18T03:12:57.076Z,96589.28
2024-04-18T03:15:26.105Z,96597.03
2024-04-18T03:17:54.593Z,96594.66
2024-04-18T03:20:22.604Z,96590.63
2024-04-18T03:22:50.647Z,96602.16
2024-04-18T03:25:18.895Z,96594.94
2024-04-18T03:27:47.731Z,96589.13
2024-04-18T03:30:16.625Z,96588.41
2024-04-18T03:32:44.679Z,96595.44
2024-04-18T03:35:14.966Z,96594.38
2024-04-18T03:37:43.009Z,96586.00
2024-04-18T03:40:14.854Z,96587.31
2024-04-18T03:42:44.123Z,96579.66
2024-04-18T03:45:12.154Z,96593.63
2024-04-18T03:47:40.068Z,96594.28
2024-04-18T03:50:09.439Z,96594.88
2024-04-18T03:52:38.373Z,96600.78
2024-04-18T03:55:09.826Z,96599.06
2024-04-18T03:57:40.338Z,96601.38
2024-04-18T04:00:09.599Z,96609.75
2024-04-18T04:02:47.129Z,96604.44
2024-04-18T04:05:16.064Z,96620.00
2024-04-18T04:07:44.256Z,96618.91
2024-04-18T04:10:12.485Z,96614.34
2024-04-18T04:12:41.721Z,96627.13
2024-04-18T04:15:11.208Z,96626.44
2024-04-18T04:17:39.520Z,96630.13
2024-04-18T04:20:07.937Z,96624.41
2024-04-18T04:22:37.238Z,96634.19
2024-04-18T04:25:06.991Z,96634.16
2024-04-18T04:27:40.926Z,96644.31
2024-04-18T04:30:10.574Z,96640.91
2024-04-18T04:32:39.623Z,96648.09
2024-04-18T04:35:08.892Z,96657.16
2024-04-18T04:37:38.945Z,96648.75
2024-04-18T04:40:07.756Z,96647.00
2024-04-18T04:42:37.543Z,96656.75
2024-04-18T04:45:06.807Z,96648.06
2024-04-18T04:47:37.567Z,96665.00
2024-04-18T04:50:07.605Z,96663.91
2024-04-18T04:52:36.458Z,96664.94
2024-04-18T04:55:03.737Z,96663.66
2024-04-18T04:57:31.114Z,96662.53
2024-04-18T04:59:58.743Z,96652.88
2024-04-18T05:02:26.043Z,96663.63
2024-04-18T05:04:56.693Z,96663.28
2024-04-18T05:07:24.164Z,96668.72
2024-04-18T05:09:52.797Z,96664.97
2024-04-18T05:12:20.428Z,96668.22
2024-04-18T05:14:51.132Z,96672.84
2024-04-18T05:17:20.973Z,96679.25
2024-04-18T05:19:48.806Z,96677.69
2024-04-18T05:22:16.654Z,96678.72
2024-04-18T05:24:44.111Z,96685.94
2024-04-18T05:27:11.573Z,96683.44
2024-04-18T05:29:39.273Z,96684.72
2024-04-18T05:32:06.930Z,96699.09
2024-04-18T05:34:34.615Z,96693.16
2024-04-18T05:37:03.046Z,96695.09
2024-04-18T05:39:30.738Z,96697.47
2024-04-18T05:41:58.335Z,96701.34
2024-04-18T05:44:26.258Z,96705.44
2024-04-18T05:46:53.770Z,96717.22
2024-04-18T05:49:24.030Z,96715.50
2024-04-18T05:51:53.808Z,96718.66
2024-04-18T05:54:25.349Z,96729.03
2024-04-18T05:56:55.627Z,96721.41
2024-04-18T05:59:23.560Z,96728.38
2024-04-18T06:01:51.010Z,96732.47
2024-04-18T06:04:18.470Z,96734.59
2024-04-18T06:06:46.010Z,96733.41
2024-04-18T06:09:13.756Z,96749.22
2024-04-18T06:11:42.087Z,96745.31
2024-04-18T06:14:10.352Z,96754.50
2024-04-18T06:16:39.770Z,96751.19
2024-04-18T06:19:07.129Z,96752.63
2024-04-18T06:21:37.968Z,96753.25
2024-04-18T06:24:05.518Z,96760.09
2024-04-18T06:26:32.896Z,96762.84
2024-04-18T06:29:03.798Z,96772.50
2024-04-18T06:31:31.209Z,96772.31
2024-04-18T06:33:58.704Z,96764.75
2024-04-18T06:36:26.495Z,96776.78
2024-04-18T06:38:55.263Z,96774.50
2024-04-18T06:41:22.614Z,96773.81
2024-04-18T06:43:50.505Z,96774.69
2024-04-18T06:46:18.005Z,96777.44
2024-04-18T06:48:45.738Z,96782.88
2024-04-18T06:51:14.496Z,96789.47
2024-04-18T06:53:50.034Z,96786.63
2024-04-18T06:56:21.938Z,96789.19
2024-04-18T06:58:56.890Z,96788.50
2024-04-18T07:01:27.492Z,96796.47
2024-04-18T07:03:55.589Z,96794.00
2024-04-18T07:06:23.693Z,96800.75
2024-04-18T07:08:51.812Z,96795.34
2024-04-18T07:11:19.571Z,96802.38
2024-04-18T07:13:47.389Z,96802.88
2024-04-18T07:16:14.955Z,96797.31
2024-04-18T07:18:42.720Z,96800.28
2024-04-18T07:21:10.624Z,96804.75
2024-04-18T07:23:42.213Z,96813.78
2024-04-18T07:26:14.007Z,96817.84
2024-04-18T07:28:41.876Z,96806.06
2024-04-18T07:31:09.320Z,96815.66
2024-04-18T07:33:37.668Z,96814.69
2024-04-18T07:36:06.105Z,96814.16
2024-04-18T07:38:33.900Z,96827.44
2024-04-18T07:41:01.710Z,96826.19
2024-04-18T07:43:30.517Z,96828.16
2024-04-18T07:45:58.177Z,96823.31
2024-04-18T07:48:26.036Z,96835.81
2024-04-18T07:50:56.352Z,96840.28
2024-04-18T07:53:23.564Z,96838.16
2024-04-18T07:55:51.370Z,96841.03
2024-04-18T07:58:20.391Z,96843.41
2024-04-18T08:00:55.307Z,96845.81
2024-04-18T08:03:27.416Z,96851.53
2024-04-18T08:05:59.959Z,96853.00
2024-04-18T08:08:33.066Z,96858.84
2024-04-18T08:11:26.518Z,96858.03
2024-04-18T08:14:04.262Z,96863.88
2024-04-18T08:16:34.822Z,96855.50
2024-04-18T08:19:02.606Z,96863.63
2024-04-18T08:21:31.425Z,96874.47
2024-04-18T08:23:59.400Z,96860.06
2024-04-18T08:26:28.551Z,96882.00
2024-04-18T08:29:01.853Z,96872.22
2024-04-18T08:31:31.320Z,96884.75
2024-04-18T08:34:07.658Z,96882.69
2024-04-18T08:36:45.395Z,96878.94
2024-04-18T08:39:13.800Z,96879.91
2024-04-18T08:41:47.419Z,96894.13
2024-04-18T08:44:17.182Z,96893.78
2024-04-18T08:46:50.655Z,96902.72
2024-04-18T08:49:20.500Z,96892.84
2024-04-18T08:51:49.755Z,96896.63
2024-04-18T08:54:17.288Z,96899.38
2024-04-18T08:56:50.780Z,96900.38
2024-04-18T08:59:22.196Z,96905.81
2024-04-18T09:01:51.657Z,96911.31
2024-04-18T09:04:19.028Z,96912.03
2024-04-18T09:06:54.954Z,96909.75
2024-04-18T09:09:24.466Z,96924.50
2024-04-18T09:11:52.051Z,96911.94
2024-04-18T09:14:19.416Z,96916.63
2024-04-18T09:16:48.043Z,96922.31
2024-04-18T09:19:16.232Z,96932.25
2024-04-18T09:21:43.724Z,96928.53
2024-04-18T09:24:11.000Z,96923.56
2024-04-18T09:26:38.417Z,96925.53
2024-04-18T09:29:06.402Z,96925.41
2024-04-18T09:31:38.607Z,96933.34
2024-04-18T09:34:17.360Z,96932.47
2024-04-18T09:36:47.168Z,96936.66
2024-04-18T09:39:30.057Z,96950.84
2024-04-18T09:42:24.309Z,96959.31
2024-04-18T09:45:05.057Z,96959.25
2024-04-18T09:47:34.136Z,96960.13
2024-04-18T09:50:03.816Z,96954.34
2024-04-18T09:52:36.448Z,96968.69
2024-04-18T09:55:09.747Z,96968.69
2024-04-18T09:57:40.728Z,96965.09
2024-04-18T10:00:10.467Z,96967.94
2024-04-18T10:02:39.485Z,96977.78
2024-04-18T10:05:13.498Z,96981.94
2024-04-18T10:07:46.199Z,96975.34
2024-04-18T10:10:19.673Z,96975.31
2024-04-18T10:12:49.904Z,96980.66
2024-04-18T10:15:20.172Z,96972.75
2024-04-18T10:17:49.454Z,96974.34
2024-04-18T10:20:28.537Z,96972.97
2024-04-18T10:23:04.640Z,96978.75
2024-04-18T10:25:39.818Z,96975.03
2024-04-18T10:28:22.370Z,96992.28
2024-04-18T10:30:50.765Z,96994.63
2024-04-18T10:33:29.923Z,96995.63
2024-04-18T10:36:02.210Z,96999.38
2024-04-18T10:38:33.622Z,96990.03
2024-04-18T10:41:03.926Z,96999.16
2024-04-18T10:43:36.369Z,96998.75
2024-04-18T10:46:04.988Z,96994.44
2024-04-18T10:48:38.348Z,96998.59
2024-04-18T10:51:10.147Z,96992.00
2024-04-18T10:53:42.819Z,96993.72
2024-04-18T10:56:11.743Z,96995.41
2024-04-18T10:58:41.489Z,96994.53
2024-04-18T11:01:09.712Z,97002.25
2024-04-18T11:03:37.610Z,96994.50
2024-04-18T11:06:06.467Z,96990.22
2024-04-18T11:08:35.624Z,96993.34
2024-04-18T11:11:06.391Z,96984.09
2024-04-18T11:13:35.607Z,96992.03
2024-04-18T11:16:05.646Z,97000.09
2024-04-18T11:18:34.456Z,97003.66
2024-04-18T11:21:04.771Z,96995.63
2024-04-18T11:23:44.026Z,96994.72
2024-04-18T11:26:16.920Z,96994.00
2024-04-18T11:28:49.088Z,96993.78
2024-04-18T11:31:17.006Z,96999.16
2024-04-18T11:33:46.749Z,96993.34
2024-04-18T11:36:15.611Z,96995.13
2024-04-18T11:38:48.031Z,96994.19
2024-04-18T11:41:15.275Z,97001.75
2024-04-18T11:43:45.033Z,96996.88
2024-04-18T11:46:12.855Z,96991.97
2024-04-18T11:48:40.619Z,96996.78
2024-04-18T11:51:10.635Z,96993.94
2024-04-18T11:53:38.403Z,97001.13
2024-04-18T11:56:09.426Z,97003.22
2024-04-18T11:58:37.974Z,96996.56
2024-04-18T12:01:08.754Z,96994.81
2024-04-18T12:03:40.110Z,96976.31
2024-04-18T12:06:08.155Z,96982.22
2024-04-18T12:08:36.136Z,96987.94
2024-04-18T12:11:03.933Z,96986.06
2024-04-18T12:13:32.786Z,96988.25
2024-04-18T12:16:04.109Z,97005.88
2024-04-18T12:18:31.780Z,96996.06
2024-04-18T12:20:59.552Z,96998.19
2024-04-18T12:23:26.914Z,96999.34
2024-04-18T12:25:57.404Z,96990.25
2024-04-18T12:28:27.378Z,96994.75
2024-04-18T12:30:55.889Z,96990.00
2024-04-18T12:33:25.551Z,96994.53
2024-04-18T12:35:54.090Z,96997.69
2024-04-18T12:38:22.580Z,96997.22
2024-04-18T12:40:50.477Z,97010.56
2024-04-18T12:43:21.112Z,97010.53
2024-04-18T12:45:49.389Z,97011.81
2024-04-18T12:48:17.529Z,97002.38
2024-04-18T12:50:45.427Z,96998.78
2024-04-18T12:53:14.428Z,97004.19
2024-04-18T12:55:44.478Z,97007.06
2024-04-18T12:58:12.739Z,96998.94
2024-04-18T13:00:41.316Z,96990.06
2024-04-18T13:03:16.446Z,96997.59
2024-04-18T13:05:46.728Z,97001.41
2024-04-18T13:08:14.309Z,96992.63
2024-04-18T13:10:42.251Z,97001.34
2024-04-18T13:13:13.691Z,97011.38
2024-04-18T13:15:47.574Z,97020.09
2024-04-18T13:18:19.642Z,97020.41
2024-04-18T13:20:56.152Z,97019.63
2024-04-18T13:23:30.424Z,97034.56
2024-04-18T13:26:05.619Z,97032.72
2024-04-18T13:28:41.739Z,97022.06
2024-04-18T13:31:14.492Z,97019.75
2024-04-18T13:33:46.483Z,97030.34
2024-04-18T13:36:17.517Z,97019.66
2024-04-18T13:38:52.935Z,97019.66
2024-04-18T13:42:18.292Z,97024.22
2024-04-18T13:45:27.968Z,97012.84
2024-04-18T13:47:46.383Z,97020.09
2024-04-18T13:50:14.713Z,97012.91
2024-04-18T13:52:45.723Z,97019.03
2024-04-18T13:55:13.641Z,97020.25
2024-04-18T13:57:41.508Z,97003.03
2024-04-18T14:00:09.883Z,97004.78
2024-04-18T14:02:42.311Z,97002.81
2024-04-18T14:05:10.278Z,96999.72
2024-04-18T14:07:42.402Z,97007.31
2024-04-18T14:10:09.783Z,97018.50
2024-04-18T14:12:37.110Z,97007.81
2024-04-18T14:15:07.926Z,97012.25
2024-04-18T14:17:35.673Z,97004.97
2024-04-18T14:20:05.025Z,97014.19
2024-04-18T14:22:32.965Z,97014.75
2024-04-18T14:25:02.699Z,97006.47
2024-04-18T14:27:30.609Z,97004.81
2024-04-18T14:29:58.774Z,97014.00
2024-04-18T14:32:27.345Z,97002.94
2024-04-18T14:34:55.115Z,97002.22
2024-04-18T14:37:22.467Z,96996.91
2024-04-18T14:39:49.800Z,96999.75
2024-04-18T14:42:20.122Z,96987.41
2024-04-18T14:44:48.929Z,96988.69
2024-04-18T14:47:18.865Z,96994.50
2024-04-18T14:49:47.492Z,96978.09
2024-04-18T14:52:17.650Z,96981.50
2024-04-18T14:54:46.612Z,97004.31
2024-04-18T14:57:14.962Z,97008.72
2024-04-18T14:59:43.262Z,97006.84
2024-04-18T15:02:12.456Z,97009.59
2024-04-18T15:04:40.686Z,97018.00
2024-04-18T15:07:08.596Z,97014.16
2024-04-18T15:09:36.711Z,97009.22
2024-04-18T15:12:04.547Z,97006.53
2024-04-18T15:14:32.327Z,97012.47
2024-04-18T15:16:59.849Z,97019.28
2024-04-18T15:19:27.945Z,97019.44
2024-04-18T15:21:56.106Z,97020.44
2024-04-18T15:24:25.254Z,97032.72
2024-04-18T15:26:53.219Z,97028.25
2024-04-18T15:29:20.661Z,97038.78
2024-04-18T15:31:49.958Z,97052.31
2024-04-18T15:34:17.250Z,97042.84
2024-04-18T15:36:44.871Z,97049.94
2024-04-18T15:39:12.500Z,97040.44
2024-04-18T15:41:48.686Z,97047.31
2024-04-18T15:44:15.911Z,97059.31
2024-04-18T15:46:43.627Z,97057.84
2024-04-18T15:49:12.056Z,97058.59
2024-04-18T15:51:39.465Z,97066.19
2024-04-18T15:54:07.726Z,97064.56
2024-04-18T15:56:36.754Z,97073.41
2024-04-18T15:59:08.103Z,97062.84
2024-04-18T16:01:36.126Z,97070.56
2024-04-18T16:04:05.908Z,97070.88
2024-04-18T16:06:34.107Z,97073.31
2024-04-18T16:09:03.331Z,97078.28
2024-04-18T16:11:32.368Z,97085.22
2024-04-18T16:14:01.777Z,97092.19
2024-04-18T16:16:29.463Z,97091.69
2024-04-18T16:18:56.810Z,97092.91
2024-04-18T16:21:24.575Z,97100.16
2024-04-18T16:23:52.234Z,97102.63
2024-04-18T16:26:19.846Z,97106.69
2024-04-18T16:28:47.395Z,97109.91
2024-04-18T16:31:15.046Z,97121.34
2024-04-18T16:33:42.580Z,97113.78
2024-04-18T16:36:13.388Z,97123.28
2024-04-18T16:38:45.167Z,97126.00
2024-04-18T16:41:12.662Z,97122.72
2024-04-18T16:43:40.474Z,97129.47
2024-04-18T16:46:07.882Z,97141.19
2024-04-18T16:48:35.330Z,97140.66
2024-04-18T16:51:03.064Z,97148.91
2024-04-18T16:53:30.667Z,97147.00
2024-04-18T16:56:00.403Z,97157.47
2024-04-18T16:58:28.224Z,97153.41
2024-04-18T17:00:58.737Z,97156.69
2024-04-18T17:03:27.304Z,97164.56
2024-04-18T17:06:05.330Z,97169.47
2024-04-18T17:08:35.080Z,97172.97
2024-04-18T17:11:25.496Z,97176.56
2024-04-18T17:13:56.541Z,97197.41
2024-04-18T17:16:28.102Z,97185.00
2024-04-18T17:18:56.381Z,97183.50
2024-04-18T17:24:09.442Z,97199.09
2024-04-18T17:26:38.492Z,97208.09
2024-04-18T17:29:06.669Z,97217.53
2024-04-18T17:31:34.920Z,97222.19
2024-04-18T17:34:03.988Z,97230.94
2024-04-18T17:36:31.884Z,97223.31
2024-04-18T17:39:02.311Z,97235.88
2024-04-18T17:41:31.846Z,97240.13
2024-04-18T17:43:59.801Z,97240.28
2024-04-18T17:46:28.240Z,97256.41
2024-04-18T17:48:59.006Z,97264.94
2024-04-18T17:51:27.298Z,97270.22
2024-04-18T17:53:55.781Z,97279.34
2024-04-18T17:56:25.084Z,97275.41
2024-04-18T17:58:52.795Z,97281.13
2024-04-18T18:01:22.086Z,97276.13
2024-04-18T18:03:50.841Z,97287.38
2024-04-18T18:06:18.812Z,97283.75
2024-04-18T18:08:47.756Z,97283.44
2024-04-18T18:11:16.681Z,97291.69
2024-04-18T18:13:44.475Z,97279.22
2024-04-18T18:16:12.285Z,97283.53
2024-04-18T18:18:41.095Z,97277.91
2024-04-18T18:21:10.142Z,97294.44
2024-04-18T18:23:42.877Z,97291.09
2024-04-18T18:26:12.278Z,97300.31
2024-04-18T18:28:42.395Z,97304.38
2024-04-18T18:31:10.325Z,97307.44
2024-04-18T18:33:40.824Z,97306.06
2024-04-18T18:36:10.968Z,97313.41
2024-04-18T18:38:51.058Z,97313.84
2024-04-18T18:41:18.942Z,97327.38
2024-04-18T18:43:46.565Z,97321.91
2024-04-18T18:46:14.876Z,97328.00
2024-04-18T18:48:42.848Z,97335.78
2024-04-18T18:51:12.674Z,97338.91
2024-04-18T18:53:41.173Z,97341.81
2024-04-18T18:56:09.036Z,97351.25
2024-04-18T18:58:39.067Z,97358.78
2024-04-18T19:01:08.087Z,97358.03
2024-04-18T19:03:37.259Z,97359.41
2024-04-18T19:06:05.314Z,97372.66
2024-04-18T19:08:33.288Z,97370.19
2024-04-18T19:11:03.236Z,97371.47
2024-04-18T19:13:31.238Z,97378.13
2024-04-18T19:15:58.940Z,97377.88
2024-04-18T19:18:28.396Z,97377.03
2024-04-18T19:20:56.019Z,97389.16
2024-04-18T19:23:38.544Z,97390.44
2024-04-18T19:26:07.614Z,97393.59
2024-04-18T19:28:35.422Z,97390.34
2024-04-18T19:31:07.358Z,97395.81
2024-04-18T19:33:42.680Z,97398.22
2024-04-18T19:36:12.889Z,97399.25
2024-04-18T19:38:40.425Z,97398.69
2024-04-18T19:41:07.696Z,97399.72
2024-04-18T19:43:35.058Z,97411.44
2024-04-18T19:46:03.311Z,97401.09
2024-04-18T19:48:30.839Z,97411.34
2024-04-18T19:50:58.204Z,97421.19
2024-04-18T19:53:26.525Z,97419.06
2024-04-18T19:55:56.487Z,97414.91
2024-04-18T19:58:24.429Z,97428.16
2024-04-18T20:00:51.896Z,97418.16
2024-04-18T20:03:19.454Z,97421.81
2024-04-18T20:05:46.877Z,97432.97
2024-04-18T20:08:14.240Z,97433.31
2024-04-18T20:10:41.926Z,97429.28
2024-04-18T20:13:09.699Z,97433.44
2024-04-18T20:15:37.076Z,97437.34
2024-04-18T20:18:07.339Z,97437.06
2024-04-18T20:20:36.224Z,97438.53
2024-04-18T20:23:03.620Z,97451.59
2024-04-18T20:25:30.970Z,97452.50
2024-04-18T20:28:01.219Z,97445.19
2024-04-18T20:30:28.507Z,97447.03
2024-04-18T20:32:55.818Z,97438.88
2024-04-18T20:35:23.163Z,97441.22
2024-04-18T20:37:53.273Z,97436.09
2024-04-18T20:40:21.160Z,97445.75
2024-04-18T20:42:48.983Z,97441.28
2024-04-18T20:45:17.312Z,97437.75
2024-04-18T20:47:46.297Z,97454.81
2024-04-18T20:50:14.464Z,97443.44
2024-04-18T20:52:42.772Z,97447.81
2024-04-18T20:55:11.665Z,97445.97
2024-04-18T20:57:39.462Z,97460.28
2024-04-18T21:00:12.293Z,97459.66
2024-04-18T21:02:40.144Z,97449.00
2024-04-18T21:05:08.205Z,97460.63
2024-04-18T21:07:36.005Z,97462.78
2024-04-18T21:10:05.125Z,97472.38
2024-04-18T21:12:36.496Z,97462.41
2024-04-18T21:15:08.654Z,97478.69
2024-04-18T21:17:38.544Z,97471.75
2024-04-18T21:20:06.860Z,97462.81
2024-04-18T21:22:34.867Z,97465.84
2024-04-18T21:25:02.581Z,97454.88
2024-04-18T21:27:30.568Z,97466.41
2024-04-18T21:29:58.336Z,97471.31
2024-04-18T21:32:26.977Z,97465.16
2024-04-18T21:34:55.836Z,97460.19
2024-04-18T21:37:23.672Z,97458.81
2024-04-18T21:39:52.532Z,97465.78
2024-04-18T21:42:21.351Z,97461.22
2024-04-18T21:44:52.647Z,97463.47
2024-04-18T21:47:20.811Z,97459.44
2024-04-18T21:49:48.510Z,97454.88
2024-04-18T21:52:17.189Z,97457.47
2024-04-18T21:54:45.087Z,97469.00
2024-04-18T21:57:12.750Z,97462.38
2024-04-18T21:59:42.837Z,97470.75
2024-04-18T22:02:10.696Z,97484.94
2024-04-18T22:04:38.703Z,97466.38
2024-04-18T22:07:07.009Z,97475.69
2024-04-18T22:09:35.906Z,97469.69
2024-04-18T22:12:05.389Z,97475.88
2024-04-18T22:14:37.327Z,97482.31
2024-04-18T22:17:05.510Z,97474.56
2024-04-18T22:19:33.767Z,97479.53
2024-04-18T22:22:02.596Z,97475.69
2024-04-18T22:24:31.539Z,97475.75
2024-04-18T22:26:59.545Z,97483.41
2024-04-18T22:29:27.265Z,97471.59
2024-04-18T22:31:55.130Z,97471.53
2024-04-18T22:34:30.897Z,97471.16
2024-04-18T22:37:03.430Z,97468.22
2024-04-18T22:39:32.091Z,97469.47
2024-04-18T22:42:00.196Z,97457.81
2024-04-18T22:44:29.460Z,97474.81
2024-04-18T22:46:57.313Z,97459.25
2024-04-18T22:49:25.239Z,97460.66
2024-04-18T22:51:55.940Z,97464.84
2024-04-18T22:54:24.739Z,97461.84
2024-04-18T22:56:52.419Z,97459.25
2024-04-18T22:59:20.172Z,97466.41
2024-04-18T23:01:48.882Z,97459.72
2024-04-18T23:04:17.006Z,97457.59
2024-04-18T23:06:45.247Z,97468.94
2024-04-18T23:09:14.838Z,97460.06
2024-04-18T23:11:42.662Z,97466.25
2024-04-18T23:14:13.697Z,97477.47
2024-04-18T23:16:41.654Z,97472.28
2024-04-18T23:19:10.945Z,97479.81
2024-04-18T23:21:38.768Z,97481.56
2024-04-18T23:24:08.792Z,97487.81
2024-04-18T23:26:36.091Z,97481.22
2024-04-18T23:29:03.529Z,97490.69
2024-04-18T23:31:31.689Z,97488.88
2024-04-18T23:33:59.018Z,97497.09
2024-04-18T23:36:30.924Z,97492.75
2024-04-18T23:39:01.160Z,97500.50
2024-04-18T23:41:31.024Z,97509.25
2024-04-18T23:43:58.362Z,97504.88
2024-04-18T23:46:25.859Z,97504.28
2024-04-18T23:48:53.403Z,97503.63
2024-04-18T23:51:21.046Z,97503.66
2024-04-18T23:53:48.889Z,97481.31
2024-04-18T23:56:16.473Z,97477.16
2024-04-18T23:58:44.611Z,97493.97
